Aérodrome :
LOGIN :

S'inscrire | Disclaimer

   EN    FR    IT 

 










Légende :    VFR   VFR Marginal   IFR   IFR Intensif   IFR Très Intensif
Visi : 
Plafond : 
>= 8 km
>= 3000ft
5 à 8 km
1000 à 3000 ft
1500m à 5 km
500 à 1000 ft
800 à 1500m
200 à 500 ft
< 800m
< 200 ft
Symboles :   Orages  Brouillard  Fortes neiges  Fortes précipitations  Vent > 20 kt
SIGMETs :   Divers  Orages  Givrage  Turbulence  Onde Orograph.  Cendres Volcan.






- Altitude de l'aérodrome : 407 ft


EGDM - MoD Boscombe Down Amesbury

DERNIER METAR :
  • 221950Z AUTO 10012KT 9999 FEW019/// BKN070/// 08/06 Q0991 RERA

METARs EXPIRÉS :
  • 221850Z AUTO 11012KT 9999 FEW013/// BKN060/// 08/07 Q0991
  • 221750Z 10013KT 9999 FEW030 BKN060 BKN090 08/06 Q0991 TEMPO 7000 -RA SCT020 RMK BLU TEMPO WHT

TAF AMD TAF EGDM
Valide du 22 à 15h jusqu'au 22 à 22h UTC


221532Z 2215/2222 14013KT 9999 BKN030
TEMPO 2215/2217 SCT013
PROB30
TEMPO 2215/2222 14015G25KT
BECMG 2217/2220 BKN018
TEMPO 2220/2222 7000 -RA BKN012



MET'MAP, la Météo Aéronautique d'un coup d'oeil ! - Copyright ORBIFLY Décembre 2007 - Disclaimer

ORBIFLY MET'MAP TEAM :

Programmation & Développement : Alexandra Zaïnal
Conception & Développement : Baudouin d'Aumeries
Co-Programmation & Développement : Marc-Olivier Méhu
Soutien technique & logistique : Manuel Goepfert

Contact : metmap@orbifly.com




SOURCES & CREDITS :

   NOAA